sensor_id;sensor_type;location;lat;lon;timestamp;temperature;humidity
78325;DHT22;67584;51.400;6.692;2023-03-01T00:01:47;-3274.60;72.50
78325;DHT22;67584;51.400;6.692;2023-03-01T00:04:14;-3274.70;72.50
78325;DHT22;67584;51.400;6.692;2023-03-01T00:06:40;-3274.60;72.50
78325;DHT22;67584;51.400;6.692;2023-03-01T00:09:07;-3274.60;72.20
78325;DHT22;67584;51.400;6.692;2023-03-01T00:11:33;-3274.40;72.30
78325;DHT22;67584;51.400;6.692;2023-03-01T00:14:00;-3274.30;73.60
78325;DHT22;67584;51.400;6.692;2023-03-01T00:16:29;-3274.50;73.60
78325;DHT22;67584;51.400;6.692;2023-03-01T00:18:56;-3274.50;72.80
78325;DHT22;67584;51.400;6.692;2023-03-01T00:21:22;-3274.40;73.20
78325;DHT22;67584;51.400;6.692;2023-03-01T00:23:49;-3274.50;72.70
78325;DHT22;67584;51.400;6.692;2023-03-01T00:26:16;-3274.40;72.70
78325;DHT22;67584;51.400;6.692;2023-03-01T00:28:43;-3274.20;73.80
78325;DHT22;67584;51.400;6.692;2023-03-01T00:31:15;-3274.40;73.70
78325;DHT22;67584;51.400;6.692;2023-03-01T00:33:41;-3274.40;74.80
78325;DHT22;67584;51.400;6.692;2023-03-01T00:36:08;-3274.30;75.20
78325;DHT22;67584;51.400;6.692;2023-03-01T00:38:38;-3274.50;73.70
78325;DHT22;67584;51.400;6.692;2023-03-01T00:41:07;-3274.30;74.70
78325;DHT22;67584;51.400;6.692;2023-03-01T00:43:33;-3274.50;74.20
78325;DHT22;67584;51.400;6.692;2023-03-01T00:46:03;-3274.20;74.10
78325;DHT22;67584;51.400;6.692;2023-03-01T00:48:30;-3274.30;73.10
78325;DHT22;67584;51.400;6.692;2023-03-01T00:50:55;-3274.30;74.30
78325;DHT22;67584;51.400;6.692;2023-03-01T00:53:21;-3274.20;75.00
78325;DHT22;67584;51.400;6.692;2023-03-01T00:55:47;-3274.20;75.70
78325;DHT22;67584;51.400;6.692;2023-03-01T00:58:13;-3274.10;75.90
78325;DHT22;67584;51.400;6.692;2023-03-01T01:00:38;-3274.10;75.40
78325;DHT22;67584;51.400;6.692;2023-03-01T01:03:04;-3274.20;75.10
78325;DHT22;67584;51.400;6.692;2023-03-01T01:05:30;-3274.30;75.20
78325;DHT22;67584;51.400;6.692;2023-03-01T01:07:56;-3274.00;74.60
78325;DHT22;67584;51.400;6.692;2023-03-01T01:10:22;-3274.00;74.70
78325;DHT22;67584;51.400;6.692;2023-03-01T01:12:47;-3274.00;75.00
78325;DHT22;67584;51.400;6.692;2023-03-01T01:15:13;-3273.90;74.90
78325;DHT22;67584;51.400;6.692;2023-03-01T01:17:42;-3274.00;74.10
78325;DHT22;67584;51.400;6.692;2023-03-01T01:20:08;-3274.00;74.60
78325;DHT22;67584;51.400;6.692;2023-03-01T01:22:34;-3274.00;74.50
78325;DHT22;67584;51.400;6.692;2023-03-01T01:24:59;-3273.80;74.20
78325;DHT22;67584;51.400;6.692;2023-03-01T01:27:25;-3274.10;75.30
78325;DHT22;67584;51.400;6.692;2023-03-01T01:29:53;-3273.80;74.70
78325;DHT22;67584;51.400;6.692;2023-03-01T01:32:18;-3273.80;75.00
78325;DHT22;67584;51.400;6.692;2023-03-01T01:34:44;-3273.90;75.00
78325;DHT22;67584;51.400;6.692;2023-03-01T01:37:10;-3273.80;75.70
78325;DHT22;67584;51.400;6.692;2023-03-01T01:39:36;-3273.80;75.60
78325;DHT22;67584;51.400;6.692;2023-03-01T01:42:02;-3273.70;75.40
78325;DHT22;67584;51.400;6.692;2023-03-01T01:44:29;-3273.60;75.50
78325;DHT22;67584;51.400;6.692;2023-03-01T01:47:06;-3273.50;75.40
78325;DHT22;67584;51.400;6.692;2023-03-01T01:52:18;-3273.50;75.50
78325;DHT22;67584;51.400;6.692;2023-03-01T01:54:50;-3273.40;75.80
78325;DHT22;67584;51.400;6.692;2023-03-01T01:57:26;-3273.30;76.50
78325;DHT22;67584;51.400;6.692;2023-03-01T01:59:57;-3273.30;75.80
78325;DHT22;67584;51.400;6.692;2023-03-01T02:02:24;-3273.50;76.50
78325;DHT22;67584;51.400;6.692;2023-03-01T02:04:55;-3273.20;76.30
78325;DHT22;67584;51.400;6.692;2023-03-01T02:07:24;-3273.30;77.30
78325;DHT22;67584;51.400;6.692;2023-03-01T02:09:52;-3273.40;77.90
78325;DHT22;67584;51.400;6.692;2023-03-01T02:12:21;-3273.40;76.60
78325;DHT22;67584;51.400;6.692;2023-03-01T02:14:48;-3273.40;76.80
78325;DHT22;67584;51.400;6.692;2023-03-01T02:17:16;-3273.50;77.30
78325;DHT22;67584;51.400;6.692;2023-03-01T02:22:35;-3273.50;77.80
78325;DHT22;67584;51.400;6.692;2023-03-01T02:30:22;-3273.60;78.40
78325;DHT22;67584;51.400;6.692;2023-03-01T02:32:48;-3273.70;79.40
78325;DHT22;67584;51.400;6.692;2023-03-01T02:35:16;-3273.70;79.10
78325;DHT22;67584;51.400;6.692;2023-03-01T02:37:44;-3273.70;78.20
78325;DHT22;67584;51.400;6.692;2023-03-01T02:40:17;-3273.60;77.70
78325;DHT22;67584;51.400;6.692;2023-03-01T02:42:54;-3273.70;77.50
78325;DHT22;67584;51.400;6.692;2023-03-01T02:45:21;-3273.70;77.90
78325;DHT22;67584;51.400;6.692;2023-03-01T02:47:48;-3273.60;79.40
78325;DHT22;67584;51.400;6.692;2023-03-01T02:55:58;-3273.70;79.40
78325;DHT22;67584;51.400;6.692;2023-03-01T02:58:25;-3273.70;78.80
78325;DHT22;67584;51.400;6.692;2023-03-01T03:00:51;-3273.70;77.40
78325;DHT22;67584;51.400;6.692;2023-03-01T03:03:17;-3273.80;79.50
78325;DHT22;67584;51.400;6.692;2023-03-01T03:05:45;-3273.70;79.40
78325;DHT22;67584;51.400;6.692;2023-03-01T03:08:11;-3273.70;78.70
78325;DHT22;67584;51.400;6.692;2023-03-01T03:10:39;-3273.80;78.20
78325;DHT22;67584;51.400;6.692;2023-03-01T03:13:12;-3273.70;78.40
78325;DHT22;67584;51.400;6.692;2023-03-01T03:15:40;-3273.70;77.60
78325;DHT22;67584;51.400;6.692;2023-03-01T03:18:16;-3273.60;78.40
78325;DHT22;67584;51.400;6.692;2023-03-01T03:20:43;-3273.70;78.50
78325;DHT22;67584;51.400;6.692;2023-03-01T03:23:09;-3273.80;79.40
78325;DHT22;67584;51.400;6.692;2023-03-01T03:25:35;-3273.70;78.60
78325;DHT22;67584;51.400;6.692;2023-03-01T03:28:04;-3273.60;77.60
78325;DHT22;67584;51.400;6.692;2023-03-01T03:30:36;-3273.60;79.80
78325;DHT22;67584;51.400;6.692;2023-03-01T03:33:05;-3273.60;79.10
78325;DHT22;67584;51.400;6.692;2023-03-01T03:35:34;-3273.60;78.00
78325;DHT22;67584;51.400;6.692;2023-03-01T03:38:06;-3273.60;79.70
78325;DHT22;67584;51.400;6.692;2023-03-01T03:40:36;-3273.60;77.80
78325;DHT22;67584;51.400;6.692;2023-03-01T03:43:05;-3273.70;78.10
78325;DHT22;67584;51.400;6.692;2023-03-01T03:45:31;-3273.60;77.10
78325;DHT22;67584;51.400;6.692;2023-03-01T03:47:59;-3273.60;78.70
78325;DHT22;67584;51.400;6.692;2023-03-01T03:50:26;-3273.60;78.70
78325;DHT22;67584;51.400;6.692;2023-03-01T03:52:52;-3273.60;78.20
78325;DHT22;67584;51.400;6.692;2023-03-01T03:55:18;-3273.70;77.60
78325;DHT22;67584;51.400;6.692;2023-03-01T03:57:46;-3273.50;78.10
78325;DHT22;67584;51.400;6.692;2023-03-01T04:00:21;-3273.60;77.60
78325;DHT22;67584;51.400;6.692;2023-03-01T04:02:50;-3273.50;78.10
78325;DHT22;67584;51.400;6.692;2023-03-01T04:05:17;-3273.60;78.80
78325;DHT22;67584;51.400;6.692;2023-03-01T04:07:44;-3273.60;79.00
78325;DHT22;67584;51.400;6.692;2023-03-01T04:10:19;-3273.60;78.30
78325;DHT22;67584;51.400;6.692;2023-03-01T04:12:45;-3273.50;78.40
78325;DHT22;67584;51.400;6.692;2023-03-01T04:15:12;-3273.50;78.20
78325;DHT22;67584;51.400;6.692;2023-03-01T04:17:41;-3273.40;77.40
78325;DHT22;67584;51.400;6.692;2023-03-01T04:20:19;-3273.50;78.00
78325;DHT22;67584;51.400;6.692;2023-03-01T04:25:23;-3273.30;78.60
78325;DHT22;67584;51.400;6.692;2023-03-01T04:27:51;-3273.40;79.60
78325;DHT22;67584;51.400;6.692;2023-03-01T04:30:17;-3273.20;78.80
78325;DHT22;67584;51.400;6.692;2023-03-01T04:32:43;-3273.30;78.60
78325;DHT22;67584;51.400;6.692;2023-03-01T04:35:09;-3273.20;79.70
78325;DHT22;67584;51.400;6.692;2023-03-01T04:37:35;-3273.10;78.10
78325;DHT22;67584;51.400;6.692;2023-03-01T04:40:02;-3273.20;78.20
78325;DHT22;67584;51.400;6.692;2023-03-01T04:42:38;-3273.20;79.20
78325;DHT22;67584;51.400;6.692;2023-03-01T04:45:05;-3273.20;78.60
78325;DHT22;67584;51.400;6.692;2023-03-01T04:47:42;-3273.10;78.80
78325;DHT22;67584;51.400;6.692;2023-03-01T04:50:11;-3273.10;79.30
78325;DHT22;67584;51.400;6.692;2023-03-01T04:52:37;-3273.20;79.00
78325;DHT22;67584;51.400;6.692;2023-03-01T04:55:03;-3273.20;79.20
78325;DHT22;67584;51.400;6.692;2023-03-01T04:57:30;-3273.20;79.80
78325;DHT22;67584;51.400;6.692;2023-03-01T04:59:56;-3273.20;80.60
78325;DHT22;67584;51.400;6.692;2023-03-01T05:02:22;-3273.10;80.30
78325;DHT22;67584;51.400;6.692;2023-03-01T05:04:48;-3273.10;80.20
78325;DHT22;67584;51.400;6.692;2023-03-01T05:07:14;-3273.10;80.70
78325;DHT22;67584;51.400;6.692;2023-03-01T05:09:47;-3273.00;80.70
78325;DHT22;67584;51.400;6.692;2023-03-01T05:12:14;-3273.10;80.10
78325;DHT22;67584;51.400;6.692;2023-03-01T05:14:41;-3273.00;81.60
78325;DHT22;67584;51.400;6.692;2023-03-01T05:17:07;-3273.00;80.70
78325;DHT22;67584;51.400;6.692;2023-03-01T05:19:34;-3273.10;81.80
78325;DHT22;67584;51.400;6.692;2023-03-01T05:22:00;-3273.10;80.10
78325;DHT22;67584;51.400;6.692;2023-03-01T05:24:34;-3273.00;80.40
78325;DHT22;67584;51.400;6.692;2023-03-01T05:27:01;-3273.00;79.70
78325;DHT22;67584;51.400;6.692;2023-03-01T05:29:35;-3272.90;79.30
78325;DHT22;67584;51.400;6.692;2023-03-01T05:32:02;-3272.90;80.90
78325;DHT22;67584;51.400;6.692;2023-03-01T05:34:34;-3273.00;81.20
78325;DHT22;67584;51.400;6.692;2023-03-01T05:37:01;-3272.90;80.50
78325;DHT22;67584;51.400;6.692;2023-03-01T05:39:28;-3272.80;81.00
78325;DHT22;67584;51.400;6.692;2023-03-01T05:41:56;-3272.90;81.40
78325;DHT22;67584;51.400;6.692;2023-03-01T05:44:22;-3272.90;81.20
78325;DHT22;67584;51.400;6.692;2023-03-01T05:46:48;-3272.80;81.60
78325;DHT22;67584;51.400;6.692;2023-03-01T05:49:15;-3272.80;80.80
78325;DHT22;67584;51.400;6.692;2023-03-01T05:51:42;-3272.80;79.70
78325;DHT22;67584;51.400;6.692;2023-03-01T05:54:09;-3272.80;80.50
78325;DHT22;67584;51.400;6.692;2023-03-01T05:56:36;-3272.80;81.60
78325;DHT22;67584;51.400;6.692;2023-03-01T05:59:02;-3272.90;82.20
78325;DHT22;67584;51.400;6.692;2023-03-01T06:01:28;-3272.90;81.00
78325;DHT22;67584;51.400;6.692;2023-03-01T06:03:55;-3272.80;80.50
78325;DHT22;67584;51.400;6.692;2023-03-01T06:06:22;-3272.90;82.00
78325;DHT22;67584;51.400;6.692;2023-03-01T06:08:50;-3272.90;82.70
78325;DHT22;67584;51.400;6.692;2023-03-01T06:11:16;-3273.10;82.50
78325;DHT22;67584;51.400;6.692;2023-03-01T06:13:43;-3273.30;81.90
78325;DHT22;67584;51.400;6.692;2023-03-01T06:16:09;-3273.30;81.40
78325;DHT22;67584;51.400;6.692;2023-03-01T06:18:36;-3273.40;80.30
78325;DHT22;67584;51.400;6.692;2023-03-01T06:21:04;-3273.30;81.00
78325;DHT22;67584;51.400;6.692;2023-03-01T06:23:30;-3273.30;80.80
78325;DHT22;67584;51.400;6.692;2023-03-01T06:25:56;-3273.40;80.90
78325;DHT22;67584;51.400;6.692;2023-03-01T06:28:22;-3273.30;80.50
78325;DHT22;67584;51.400;6.692;2023-03-01T06:30:49;-3273.30;80.10
78325;DHT22;67584;51.400;6.692;2023-03-01T06:33:15;-3273.30;80.20
78325;DHT22;67584;51.400;6.692;2023-03-01T06:35:41;-3273.30;80.70
78325;DHT22;67584;51.400;6.692;2023-03-01T06:38:07;-3273.40;81.20
78325;DHT22;67584;51.400;6.692;2023-03-01T06:40:33;-3273.50;80.80
78325;DHT22;67584;51.400;6.692;2023-03-01T06:43:01;-3273.50;80.30
78325;DHT22;67584;51.400;6.692;2023-03-01T06:45:26;-3273.60;80.20
78325;DHT22;67584;51.400;6.692;2023-03-01T06:47:57;-3273.70;80.00
78325;DHT22;67584;51.400;6.692;2023-03-01T06:50:26;-3273.80;79.70
78325;DHT22;67584;51.400;6.692;2023-03-01T06:52:56;-3273.80;79.40
78325;DHT22;67584;51.400;6.692;2023-03-01T06:55:22;-3273.80;79.30
78325;DHT22;67584;51.400;6.692;2023-03-01T06:57:47;-3274.00;79.30
78325;DHT22;67584;51.400;6.692;2023-03-01T07:00:14;-3274.00;79.30
78325;DHT22;67584;51.400;6.692;2023-03-01T07:02:40;-3274.00;78.70
78325;DHT22;67584;51.400;6.692;2023-03-01T07:05:06;-3274.00;78.80
78325;DHT22;67584;51.400;6.692;2023-03-01T07:07:32;-3274.10;78.60
78325;DHT22;67584;51.400;6.692;2023-03-01T07:09:58;-3274.20;79.00
78325;DHT22;67584;51.400;6.692;2023-03-01T07:12:23;-3274.30;78.10
78325;DHT22;67584;51.400;6.692;2023-03-01T07:14:49;-3274.40;78.10
78325;DHT22;67584;51.400;6.692;2023-03-01T07:17:15;-3274.50;77.70
78325;DHT22;67584;51.400;6.692;2023-03-01T07:19:44;-3274.70;77.50
78325;DHT22;67584;51.400;6.692;2023-03-01T07:22:10;-3274.60;77.50
78325;DHT22;67584;51.400;6.692;2023-03-01T07:24:36;-3274.80;77.40
78325;DHT22;67584;51.400;6.692;2023-03-01T07:27:02;-3274.70;77.00
78325;DHT22;67584;51.400;6.692;2023-03-01T07:29:28;-3275.00;76.30
78325;DHT22;67584;51.400;6.692;2023-03-01T07:31:54;-3275.00;76.20
78325;DHT22;67584;51.400;6.692;2023-03-01T07:34:20;-3275.10;76.10
78325;DHT22;67584;51.400;6.692;2023-03-01T07:36:46;-3275.20;75.50
78325;DHT22;67584;51.400;6.692;2023-03-01T07:39:12;-3275.40;75.50
78325;DHT22;67584;51.400;6.692;2023-03-01T07:41:38;-3275.50;75.20
78325;DHT22;67584;51.400;6.692;2023-03-01T07:44:04;-3275.50;75.00
78325;DHT22;67584;51.400;6.692;2023-03-01T07:46:30;-3275.60;74.50
78325;DHT22;67584;51.400;6.692;2023-03-01T07:48:55;-3276.00;74.30
78325;DHT22;67584;51.400;6.692;2023-03-01T07:51:23;-3276.10;74.00
78325;DHT22;67584;51.400;6.692;2023-03-01T07:53:49;-3276.20;73.70
78325;DHT22;67584;51.400;6.692;2023-03-01T07:56:16;-3276.30;73.40
78325;DHT22;67584;51.400;6.692;2023-03-01T07:58:44;-3276.50;73.10
78325;DHT22;67584;51.400;6.692;2023-03-01T08:01:13;-3276.60;72.70
78325;DHT22;67584;51.400;6.692;2023-03-01T08:03:39;-3276.50;72.30
78325;DHT22;67584;51.400;6.692;2023-03-01T08:06:07;-3276.70;71.90
78325;DHT22;67584;51.400;6.692;2023-03-01T08:08:34;-3276.70;71.20
78325;DHT22;67584;51.400;6.692;2023-03-01T08:11:03;0.00;70.70
78325;DHT22;67584;51.400;6.692;2023-03-01T08:13:29;0.20;69.70
78325;DHT22;67584;51.400;6.692;2023-03-01T08:16:01;0.40;69.50
78325;DHT22;67584;51.400;6.692;2023-03-01T08:18:27;0.50;69.30
78325;DHT22;67584;51.400;6.692;2023-03-01T08:20:53;0.70;68.80
78325;DHT22;67584;51.400;6.692;2023-03-01T08:23:18;0.80;67.80
78325;DHT22;67584;51.400;6.692;2023-03-01T08:25:44;0.90;67.50
78325;DHT22;67584;51.400;6.692;2023-03-01T08:28:10;1.00;66.70
78325;DHT22;67584;51.400;6.692;2023-03-01T08:30:36;1.00;66.70
78325;DHT22;67584;51.400;6.692;2023-03-01T08:33:01;1.10;66.60
78325;DHT22;67584;51.400;6.692;2023-03-01T08:35:27;1.30;66.20
78325;DHT22;67584;51.400;6.692;2023-03-01T08:37:53;1.30;65.50
78325;DHT22;67584;51.400;6.692;2023-03-01T08:40:19;1.50;65.00
78325;DHT22;67584;51.400;6.692;2023-03-01T08:42:45;1.60;64.70
78325;DHT22;67584;51.400;6.692;2023-03-01T08:45:11;1.70;64.50
78325;DHT22;67584;51.400;6.692;2023-03-01T08:47:37;1.70;64.10
78325;DHT22;67584;51.400;6.692;2023-03-01T08:50:03;1.90;63.50
78325;DHT22;67584;51.400;6.692;2023-03-01T08:52:29;2.00;64.10
78325;DHT22;67584;51.400;6.692;2023-03-01T08:54:56;2.30;63.00
78325;DHT22;67584;51.400;6.692;2023-03-01T08:57:22;2.10;63.50
78325;DHT22;67584;51.400;6.692;2023-03-01T08:59:48;2.40;62.80
78325;DHT22;67584;51.400;6.692;2023-03-01T09:02:16;2.40;63.80
78325;DHT22;67584;51.400;6.692;2023-03-01T09:04:42;2.60;63.40
78325;DHT22;67584;51.400;6.692;2023-03-01T09:07:08;2.70;61.90
78325;DHT22;67584;51.400;6.692;2023-03-01T09:09:34;2.90;61.90
78325;DHT22;67584;51.400;6.692;2023-03-01T09:12:00;2.70;61.40
78325;DHT22;67584;51.400;6.692;2023-03-01T09:14:26;3.10;60.60
78325;DHT22;67584;51.400;6.692;2023-03-01T09:16:52;3.10;61.00
78325;DHT22;67584;51.400;6.692;2023-03-01T09:19:18;3.40;59.50
78325;DHT22;67584;51.400;6.692;2023-03-01T09:21:43;3.70;59.90
78325;DHT22;67584;51.400;6.692;2023-03-01T09:24:19;3.70;59.50
78325;DHT22;67584;51.400;6.692;2023-03-01T09:26:46;4.00;58.50
78325;DHT22;67584;51.400;6.692;2023-03-01T09:29:13;4.50;58.00
78325;DHT22;67584;51.400;6.692;2023-03-01T09:31:40;4.20;58.80
78325;DHT22;67584;51.400;6.692;2023-03-01T09:34:06;4.30;58.00
78325;DHT22;67584;51.400;6.692;2023-03-01T09:36:32;4.60;57.70
78325;DHT22;67584;51.400;6.692;2023-03-01T09:38:58;4.70;57.20
78325;DHT22;67584;51.400;6.692;2023-03-01T09:41:49;5.10;53.50
78325;DHT22;67584;51.400;6.692;2023-03-01T09:47:00;8.40;48.60
78325;DHT22;67584;51.400;6.692;2023-03-01T09:49:29;10.20;44.80
78325;DHT22;67584;51.400;6.692;2023-03-01T09:52:09;12.00;39.10
78325;DHT22;67584;51.400;6.692;2023-03-01T09:54:37;12.90;38.90
78325;DHT22;67584;51.400;6.692;2023-03-01T09:57:36;13.50;35.80
78325;DHT22;67584;51.400;6.692;2023-03-01T10:02:56;14.40;32.90
78325;DHT22;67584;51.400;6.692;2023-03-01T10:10:52;16.00;31.80
78325;DHT22;67584;51.400;6.692;2023-03-01T10:13:27;16.30;30.50
78325;DHT22;67584;51.400;6.692;2023-03-01T10:16:11;16.90;31.10
78325;DHT22;67584;51.400;6.692;2023-03-01T10:18:39;16.90;30.60
78325;DHT22;67584;51.400;6.692;2023-03-01T10:21:12;16.80;31.10
78325;DHT22;67584;51.400;6.692;2023-03-01T10:23:39;17.20;29.40
78325;DHT22;67584;51.400;6.692;2023-03-01T10:28:53;18.50;29.30
78325;DHT22;67584;51.400;6.692;2023-03-01T10:31:27;18.90;28.50
78325;DHT22;67584;51.400;6.692;2023-03-01T10:34:06;19.00;28.00
78325;DHT22;67584;51.400;6.692;2023-03-01T10:36:33;19.30;28.20
78325;DHT22;67584;51.400;6.692;2023-03-01T10:38:59;19.50;27.80
78325;DHT22;67584;51.400;6.692;2023-03-01T10:41:29;19.00;27.30
78325;DHT22;67584;51.400;6.692;2023-03-01T10:43:57;18.30;28.30
78325;DHT22;67584;51.400;6.692;2023-03-01T10:46:27;18.40;28.30
78325;DHT22;67584;51.400;6.692;2023-03-01T10:49:16;19.20;25.00
78325;DHT22;67584;51.400;6.692;2023-03-01T10:51:44;19.50;26.30
78325;DHT22;67584;51.400;6.692;2023-03-01T10:54:19;19.50;26.00
78325;DHT22;67584;51.400;6.692;2023-03-01T10:56:54;19.70;25.90
78325;DHT22;67584;51.400;6.692;2023-03-01T10:59:33;19.70;25.50
78325;DHT22;67584;51.400;6.692;2023-03-01T11:04:28;20.40;25.90
78325;DHT22;67584;51.400;6.692;2023-03-01T11:07:00;20.10;24.40
78325;DHT22;67584;51.400;6.692;2023-03-01T11:09:31;20.80;24.10
78325;DHT22;67584;51.400;6.692;2023-03-01T11:12:05;20.60;25.20
78325;DHT22;67584;51.400;6.692;2023-03-01T11:14:38;20.70;25.30
78325;DHT22;67584;51.400;6.692;2023-03-01T11:17:15;21.30;23.40
78325;DHT22;67584;51.400;6.692;2023-03-01T11:19:42;21.70;24.40
78325;DHT22;67584;51.400;6.692;2023-03-01T11:22:21;21.60;22.40
78325;DHT22;67584;51.400;6.692;2023-03-01T11:24:49;21.20;24.00
78325;DHT22;67584;51.400;6.692;2023-03-01T11:30:38;20.90;23.00
78325;DHT22;67584;51.400;6.692;2023-03-01T11:35:35;21.70;23.40
78325;DHT22;67584;51.400;6.692;2023-03-01T11:38:23;21.90;21.10
78325;DHT22;67584;51.400;6.692;2023-03-01T11:43:30;22.60;22.60
78325;DHT22;67584;51.400;6.692;2023-03-01T11:51:23;22.40;21.80
78325;DHT22;67584;51.400;6.692;2023-03-01T11:54:09;22.80;21.50
78325;DHT22;67584;51.400;6.692;2023-03-01T11:56:45;22.50;22.60
78325;DHT22;67584;51.400;6.692;2023-03-01T11:59:35;22.60;21.10
78325;DHT22;67584;51.400;6.692;2023-03-01T12:02:27;23.00;20.90
78325;DHT22;67584;51.400;6.692;2023-03-01T12:10:23;23.10;21.40
78325;DHT22;67584;51.400;6.692;2023-03-01T12:15:45;23.70;20.70
78325;DHT22;67584;51.400;6.692;2023-03-01T12:18:16;23.80;20.60
78325;DHT22;67584;51.400;6.692;2023-03-01T12:23:53;23.20;20.70
78325;DHT22;67584;51.400;6.692;2023-03-01T12:26:35;23.30;20.20
78325;DHT22;67584;51.400;6.692;2023-03-01T12:29:23;23.00;21.00
78325;DHT22;67584;51.400;6.692;2023-03-01T12:48:46;24.10;19.20
78325;DHT22;67584;51.400;6.692;2023-03-01T12:51:20;24.30;19.30
78325;DHT22;67584;51.400;6.692;2023-03-01T12:53:48;24.50;19.60
78325;DHT22;67584;51.400;6.692;2023-03-01T12:56:26;24.90;19.60
78325;DHT22;67584;51.400;6.692;2023-03-01T12:59:02;24.60;19.00
78325;DHT22;67584;51.400;6.692;2023-03-01T13:07:57;24.60;19.40
78325;DHT22;67584;51.400;6.692;2023-03-01T13:17:54;25.40;19.60
78325;DHT22;67584;51.400;6.692;2023-03-01T13:20:47;25.60;19.40
78325;DHT22;67584;51.400;6.692;2023-03-01T13:26:08;26.00;18.70
78325;DHT22;67584;51.400;6.692;2023-03-01T13:28:41;26.30;19.00
78325;DHT22;67584;51.400;6.692;2023-03-01T13:31:09;26.40;18.80
78325;DHT22;67584;51.400;6.692;2023-03-01T13:33:47;26.30;18.80
78325;DHT22;67584;51.400;6.692;2023-03-01T13:41:51;26.70;18.80
78325;DHT22;67584;51.400;6.692;2023-03-01T13:44:36;26.40;18.30
78325;DHT22;67584;51.400;6.692;2023-03-01T13:52:42;25.10;18.70
78325;DHT22;67584;51.400;6.692;2023-03-01T13:57:46;24.90;19.20
78325;DHT22;67584;51.400;6.692;2023-03-01T14:00:29;24.80;18.60
78325;DHT22;67584;51.400;6.692;2023-03-01T14:05:31;25.50;18.90
78325;DHT22;67584;51.400;6.692;2023-03-01T14:07:57;25.80;18.50
78325;DHT22;67584;51.400;6.692;2023-03-01T14:10:28;25.90;18.10
78325;DHT22;67584;51.400;6.692;2023-03-01T14:13:03;26.00;17.90
78325;DHT22;67584;51.400;6.692;2023-03-01T14:15:35;25.90;18.40
78325;DHT22;67584;51.400;6.692;2023-03-01T14:18:10;25.80;18.40
78325;DHT22;67584;51.400;6.692;2023-03-01T14:20:42;25.70;18.40
78325;DHT22;67584;51.400;6.692;2023-03-01T14:23:15;26.10;17.90
78325;DHT22;67584;51.400;6.692;2023-03-01T14:25:48;26.20;17.60
78325;DHT22;67584;51.400;6.692;2023-03-01T14:28:18;26.20;18.00
78325;DHT22;67584;51.400;6.692;2023-03-01T14:30:46;26.20;18.30
78325;DHT22;67584;51.400;6.692;2023-03-01T14:36:07;27.20;17.40
78325;DHT22;67584;51.400;6.692;2023-03-01T14:38:39;27.30;17.80
78325;DHT22;67584;51.400;6.692;2023-03-01T14:41:15;27.20;17.40
78325;DHT22;67584;51.400;6.692;2023-03-01T14:44:03;26.80;17.80
78325;DHT22;67584;51.400;6.692;2023-03-01T14:46:39;26.40;17.70
78325;DHT22;67584;51.400;6.692;2023-03-01T14:49:19;27.10;17.70
78325;DHT22;67584;51.400;6.692;2023-03-01T14:54:24;27.30;17.60
78325;DHT22;67584;51.400;6.692;2023-03-01T14:56:51;27.20;17.70
78325;DHT22;67584;51.400;6.692;2023-03-01T14:59:22;27.10;17.50
78325;DHT22;67584;51.400;6.692;2023-03-01T15:01:50;27.20;17.70
78325;DHT22;67584;51.400;6.692;2023-03-01T15:04:18;26.60;17.90
78325;DHT22;67584;51.400;6.692;2023-03-01T15:06:45;26.60;18.00
78325;DHT22;67584;51.400;6.692;2023-03-01T15:09:15;26.50;18.10
78325;DHT22;67584;51.400;6.692;2023-03-01T15:11:43;25.70;18.50
78325;DHT22;67584;51.400;6.692;2023-03-01T15:14:41;26.10;18.70
78325;DHT22;67584;51.400;6.692;2023-03-01T15:17:33;26.20;18.60
78325;DHT22;67584;51.400;6.692;2023-03-01T15:20:02;25.90;18.50
78325;DHT22;67584;51.400;6.692;2023-03-01T15:22:29;25.90;18.60
78325;DHT22;67584;51.400;6.692;2023-03-01T15:24:55;25.50;18.70
78325;DHT22;67584;51.400;6.692;2023-03-01T15:27:24;25.30;18.90
78325;DHT22;67584;51.400;6.692;2023-03-01T15:29:53;24.90;19.00
78325;DHT22;67584;51.400;6.692;2023-03-01T15:34:57;24.50;19.30
78325;DHT22;67584;51.400;6.692;2023-03-01T15:37:48;24.30;19.50
78325;DHT22;67584;51.400;6.692;2023-03-01T15:40:28;23.90;19.80
78325;DHT22;67584;51.400;6.692;2023-03-01T15:43:05;23.80;19.80
78325;DHT22;67584;51.400;6.692;2023-03-01T15:45:32;23.70;19.40
78325;DHT22;67584;51.400;6.692;2023-03-01T15:48:15;23.70;20.00
78325;DHT22;67584;51.400;6.692;2023-03-01T15:50:43;23.80;20.00
78325;DHT22;67584;51.400;6.692;2023-03-01T15:53:14;23.70;19.70
78325;DHT22;67584;51.400;6.692;2023-03-01T15:55:40;23.30;20.10
78325;DHT22;67584;51.400;6.692;2023-03-01T15:58:28;23.40;19.80
78325;DHT22;67584;51.400;6.692;2023-03-01T16:00:54;22.80;20.30
78325;DHT22;67584;51.400;6.692;2023-03-01T16:03:24;22.40;20.70
78325;DHT22;67584;51.400;6.692;2023-03-01T16:05:50;22.10;20.90
78325;DHT22;67584;51.400;6.692;2023-03-01T16:08:17;22.30;20.70
78325;DHT22;67584;51.400;6.692;2023-03-01T16:10:43;22.40;20.80
78325;DHT22;67584;51.400;6.692;2023-03-01T16:13:13;22.40;20.60
78325;DHT22;67584;51.400;6.692;2023-03-01T16:15:39;21.90;20.90
78325;DHT22;67584;51.400;6.692;2023-03-01T16:18:06;21.30;21.20
78325;DHT22;67584;51.400;6.692;2023-03-01T16:20:33;20.70;22.00
78325;DHT22;67584;51.400;6.692;2023-03-01T16:23:05;20.20;22.60
78325;DHT22;67584;51.400;6.692;2023-03-01T16:25:31;19.90;22.90
78325;DHT22;67584;51.400;6.692;2023-03-01T16:27:58;19.60;22.90
78325;DHT22;67584;51.400;6.692;2023-03-01T16:30:26;19.20;23.30
78325;DHT22;67584;51.400;6.692;2023-03-01T16:32:52;18.80;23.80
78325;DHT22;67584;51.400;6.692;2023-03-01T16:35:19;18.10;24.20
78325;DHT22;67584;51.400;6.692;2023-03-01T16:37:47;16.50;25.70
78325;DHT22;67584;51.400;6.692;2023-03-01T16:40:18;15.30;27.20
78325;DHT22;67584;51.400;6.692;2023-03-01T16:42:47;14.60;27.30
78325;DHT22;67584;51.400;6.692;2023-03-01T16:45:13;13.70;28.50
78325;DHT22;67584;51.400;6.692;2023-03-01T16:47:39;12.90;29.40
78325;DHT22;67584;51.400;6.692;2023-03-01T16:50:05;12.50;30.40
78325;DHT22;67584;51.400;6.692;2023-03-01T16:52:30;12.30;30.50
78325;DHT22;67584;51.400;6.692;2023-03-01T16:54:56;11.60;31.20
78325;DHT22;67584;51.400;6.692;2023-03-01T16:57:23;10.60;32.20
78325;DHT22;67584;51.400;6.692;2023-03-01T16:59:51;9.90;33.40
78325;DHT22;67584;51.400;6.692;2023-03-01T17:02:19;9.40;35.60
78325;DHT22;67584;51.400;6.692;2023-03-01T17:04:51;8.90;35.50
78325;DHT22;67584;51.400;6.692;2023-03-01T17:07:16;8.30;36.20
78325;DHT22;67584;51.400;6.692;2023-03-01T17:09:42;7.90;36.70
78325;DHT22;67584;51.400;6.692;2023-03-01T17:12:08;7.60;37.80
78325;DHT22;67584;51.400;6.692;2023-03-01T17:14:37;7.30;41.50
78325;DHT22;67584;51.400;6.692;2023-03-01T17:17:04;7.10;38.30
78325;DHT22;67584;51.400;6.692;2023-03-01T17:19:30;6.90;38.70
78325;DHT22;67584;51.400;6.692;2023-03-01T17:21:57;6.70;39.90